Montrose, Missouri
Current Conditions -  °F | °C
As of 6:15 PM on Thursday 25 Dec 2014 (Local Time) from KGLY Reporting Station
Clear Clear  
Wind Chill: 50°   Ceiling: Unl
Heat Index: 50°   Visibility: 10mi
Dew Point: 32°   Wind: 15mph
Humidity: 50%   Direction: 170°S
Pressure: 29.8"   Gusts: 20mph
Location:  38.26°N, 93.98°W
Report Text: KGLY 260015Z AUTO 17013G17KT 10SM CLR 10/00 A2980 RMK AO2
Loading
Personal Weather Stations






























Interactive Weather Map New forecast layout! Learn more

10-Day Weather Forecast

Advertisements
Track Severe Weather on mobile